Time;durP1;ratioP1;P1;durP2;ratioP2;P2;SDS_P1;SDS_P2;PMS_P1;PMS_P2;Temp;Humidity;BMP_temperature;BMP_pressure;BME280_temperature;BME280_humidity;BME280_pressure;Samples;Min_cycle;Max_cycle;Signal;HPM_P1;HPM_P2
2022/03/20 00:01:16;;;;;;;;;;;14.00;51.00;;;;;;5069878;28;19934;-70
2022/03/20 00:03:43;;;;;;;;;;;14.00;51.00;;;;;;5077300;28;19924;-69
2022/03/20 00:06:09;;;;;;;;;;;14.00;51.10;;;;;;5074442;28;19931;-69
2022/03/20 00:08:36;;;;;;;;;;;13.90;51.00;;;;;;5056749;28;20364;-70
2022/03/20 00:11:04;;;;;;;;;;;13.90;51.00;;;;;;5056548;28;20400;-70
2022/03/20 00:13:31;;;;;;;;;;;13.90;51.00;;;;;;5056295;28;19974;-70
2022/03/20 00:15:59;;;;;;;;;;;13.90;51.10;;;;;;5056622;28;19924;-69
2022/03/20 00:18:26;;;;;;;;;;;13.90;51.10;;;;;;5077160;28;19924;-69
2022/03/20 00:20:53;;;;;;;;;;;13.90;51.10;;;;;;5076524;28;20484;-70
2022/03/20 00:23:22;;;;;;;;;;;13.90;51.10;;;;;;5076336;28;19924;-70
2022/03/20 00:25:48;;;;;;;;;;;13.90;51.10;;;;;;5076384;28;20437;-70
2022/03/20 00:28:16;;;;;;;;;;;13.80;51.00;;;;;;5076171;28;19924;-70
2022/03/20 00:30:42;;;;;;;;;;;13.80;51.10;;;;;;5094542;28;19924;-69
2022/03/20 00:33:10;;;;;;;;;;;13.80;51.10;;;;;;5088173;28;19946;-70
2022/03/20 00:35:37;;;;;;;;;;;13.80;51.10;;;;;;5073885;28;20031;-70
2022/03/20 00:38:03;;;;;;;;;;;13.80;51.10;;;;;;5073851;28;19930;-70
2022/03/20 00:40:32;;;;;;;;;;;13.80;51.10;;;;;;5073914;28;19931;-70
2022/03/20 00:42:59;;;;;;;;;;;13.80;51.20;;;;;;5055491;28;19940;-68
2022/03/20 00:45:26;;;;;;;;;;;13.70;51.10;;;;;;5073755;28;19931;-70
2022/03/20 00:47:53;;;;;;;;;;;14.20;51.50;;;;;;5073966;28;19977;-70
2022/03/20 00:50:21;;;;;;;;;;;13.70;51.10;;;;;;5068821;28;19924;-70
2022/03/20 00:52:47;;;;;;;;;;;13.70;51.10;;;;;;5093625;28;19928;-70
2022/03/20 00:55:14;;;;;;;;;;;13.70;51.10;;;;;;5075884;28;19924;-70
2022/03/20 00:57:40;;;;;;;;;;;13.90;51.20;;;;;;5093524;28;19924;-70
2022/03/20 01:00:07;;;;;;;;;;;13.70;51.10;;;;;;5075851;28;19934;-69
2022/03/20 01:02:37;;;;;;;;;;;13.70;51.20;;;;;;5093372;28;19924;-70
2022/03/20 01:05:03;;;;;;;;;;;14.20;51.50;;;;;;5093227;28;19930;-70
2022/03/20 01:07:31;;;;;;;;;;;13.60;51.10;;;;;;5075520;28;19924;-70
2022/03/20 01:09:58;;;;;;;;;;;13.60;51.10;;;;;;5093312;28;20392;-71
2022/03/20 01:12:24;;;;;;;;;;;13.60;51.20;;;;;;5076450;28;20268;-70
2022/03/20 01:14:51;;;;;;;;;;;13.70;51.20;;;;;;5094913;28;20283;-70
2022/03/20 01:17:18;;;;;;;;;;;13.60;51.10;;;;;;5076537;28;19924;-70
2022/03/20 01:19:44;;;;;;;;;;;13.60;51.10;;;;;;5094495;28;19924;-70
2022/03/20 01:22:12;;;;;;;;;;;13.60;51.10;;;;;;5075100;28;19924;-70
2022/03/20 01:24:39;;;;;;;;;;;13.60;51.10;;;;;;5093071;28;19924;-69
2022/03/20 01:27:07;;;;;;;;;;;13.60;51.10;;;;;;5075348;28;19924;-70
2022/03/20 01:29:34;;;;;;;;;;;13.60;51.10;;;;;;5075238;28;20281;-70
2022/03/20 01:32:00;;;;;;;;;;;14.00;51.30;;;;;;5075024;28;20011;-70
2022/03/20 01:34:27;;;;;;;;;;;13.60;51.10;;;;;;5093116;28;19958;-70
2022/03/20 01:36:54;;;;;;;;;;;13.50;51.00;;;;;;5093008;28;19928;-69
2022/03/20 01:39:20;;;;;;;;;;;13.50;51.10;;;;;;5091318;28;20384;-70
2022/03/20 01:41:48;;;;;;;;;;;13.50;51.10;;;;;;5075014;28;20265;-69
2022/03/20 01:44:15;;;;;;;;;;;13.50;51.10;;;;;;5074276;28;19928;-70
2022/03/20 01:46:41;;;;;;;;;;;13.90;51.30;;;;;;5093180;28;19924;-70
2022/03/20 01:49:08;;;;;;;;;;;13.50;51.10;;;;;;5092828;28;19924;-70
2022/03/20 01:54:20;;;;;;;;;;;13.50;51.10;;;;;;5090778;28;20377;-69
2022/03/20 01:56:48;;;;;;;;;;;13.50;51.20;;;;;;5092534;28;19935;-70
2022/03/20 01:59:16;;;;;;;;;;;13.40;51.10;;;;;;5074522;28;19931;-69
2022/03/20 02:01:43;;;;;;;;;;;13.60;51.30;;;;;;5074682;28;20304;-70
2022/03/20 02:04:12;;;;;;;;;;;13.70;51.30;;;;;;5074262;28;19924;-70
2022/03/20 02:06:39;;;;;;;;;;;13.50;51.20;;;;;;5074471;28;20300;-69
2022/03/20 02:09:05;;;;;;;;;;;13.50;51.10;;;;;;5092554;28;19966;-70
2022/03/20 02:11:32;;;;;;;;;;;13.50;51.20;;;;;;5074752;28;19931;-69
2022/03/20 02:13:59;;;;;;;;;;;13.40;51.10;;;;;;5090543;28;19924;-69
2022/03/20 02:16:27;;;;;;;;;;;13.50;51.20;;;;;;5092475;28;19924;-70
2022/03/20 02:18:54;;;;;;;;;;;13.90;51.40;;;;;;5074507;28;19924;-70
2022/03/20 02:24:32;;;;;;;;;;;13.70;51.20;;;;;;5110257;27;19912;-68
2022/03/20 02:27:07;;;;;;;;;;;13.50;51.00;;;;;;5109681;28;19931;-67
2022/03/20 02:29:34;;;;;;;;;;;13.50;51.00;;;;;;5084186;28;19931;-67
2022/03/20 02:32:00;;;;;;;;;;;13.50;51.00;;;;;;5089569;28;20295;-67
2022/03/20 02:34:27;;;;;;;;;;;13.50;50.90;;;;;;5091873;28;19931;-67
2022/03/20 02:36:54;;;;;;;;;;;13.60;51.10;;;;;;5089478;28;19928;-67
2022/03/20 02:39:20;;;;;;;;;;;13.60;51.10;;;;;;5089551;28;19929;-67
2022/03/20 02:41:47;;;;;;;;;;;13.70;51.20;;;;;;5088936;28;19924;-67
2022/03/20 02:44:16;;;;;;;;;;;13.70;51.00;;;;;;5088856;28;19924;-66
2022/03/20 02:46:42;;;;;;;;;;;13.70;50.90;;;;;;5096304;28;19931;-67
2022/03/20 02:49:09;;;;;;;;;;;13.80;50.80;;;;;;5089113;28;19932;-67
2022/03/20 02:51:36;;;;;;;;;;;13.80;50.70;;;;;;5091665;28;19928;-66
2022/03/20 02:54:02;;;;;;;;;;;13.90;50.70;;;;;;5098740;28;19935;-67
2022/03/20 02:56:29;;;;;;;;;;;13.90;50.60;;;;;;5099121;28;19938;-67
2022/03/20 02:58:56;;;;;;;;;;;13.90;50.50;;;;;;5098587;28;20013;-67
2022/03/20 03:01:24;;;;;;;;;;;14.00;51.10;;;;;;5097243;28;19928;-67
2022/03/20 03:03:54;;;;;;;;;;;14.00;50.50;;;;;;5099665;28;20007;-66
2022/03/20 03:06:21;;;;;;;;;;;14.00;50.40;;;;;;5098826;28;20393;-66
2022/03/20 03:11:31;;;;;;;;;;;14.00;50.30;;;;;;5099974;28;19920;-67
2022/03/20 03:15:18;;;;;;;;;;;14.10;50.20;;;;;;5098022;28;19924;-67
2022/03/20 03:16:47;;;;;;;;;;;14.10;50.20;;;;;;5096654;28;19932;-67
2022/03/20 03:19:15;;;;;;;;;;;14.10;50.20;;;;;;5097290;28;19946;-67
2022/03/20 03:21:41;;;;;;;;;;;14.10;50.10;;;;;;5098955;28;19924;-66
2022/03/20 03:24:08;;;;;;;;;;;14.10;50.10;;;;;;5117897;28;19924;-67
2022/03/20 03:26:34;;;;;;;;;;;14.10;50.00;;;;;;5120101;28;19924;-67
2022/03/20 03:29:01;;;;;;;;;;;14.20;50.00;;;;;;5118575;28;19924;-66
2022/03/20 03:31:28;;;;;;;;;;;14.10;50.00;;;;;;5118263;28;19923;-66
2022/03/20 03:36:40;;;;;;;;;;;14.10;50.10;;;;;;5105154;28;19959;-67
2022/03/20 03:39:07;;;;;;;;;;;14.20;50.00;;;;;;5101680;28;19928;-66
2022/03/20 03:41:33;;;;;;;;;;;14.20;50.00;;;;;;5095456;28;20377;-66
2022/03/20 03:44:00;;;;;;;;;;;14.20;49.90;;;;;;5094705;28;19924;-66
2022/03/20 03:46:27;;;;;;;;;;;14.20;49.90;;;;;;5095176;28;19947;-67
2022/03/20 03:48:53;;;;;;;;;;;14.20;50.00;;;;;;5096469;28;19924;-66
2022/03/20 03:51:21;;;;;;;;;;;14.20;49.90;;;;;;5095387;28;19924;-67
2022/03/20 03:53:48;;;;;;;;;;;14.20;49.80;;;;;;5094615;28;19924;-66
2022/03/20 03:56:14;;;;;;;;;;;14.20;49.80;;;;;;5095271;28;19930;-66
2022/03/20 03:58:41;;;;;;;;;;;14.30;49.90;;;;;;5094696;28;19928;-67
2022/03/20 04:01:09;;;;;;;;;;;14.20;49.80;;;;;;5094732;28;19924;-67
2022/03/20 04:03:36;;;;;;;;;;;14.20;49.80;;;;;;5094840;28;19924;-66
2022/03/20 04:06:04;;;;;;;;;;;14.20;49.70;;;;;;5096177;28;19928;-66
2022/03/20 04:08:32;;;;;;;;;;;14.20;49.80;;;;;;5094943;28;20006;-66
2022/03/20 04:10:59;;;;;;;;;;;14.20;49.70;;;;;;5094663;28;20041;-66
2022/03/20 04:13:25;;;;;;;;;;;14.20;49.70;;;;;;5094635;28;19924;-66
2022/03/20 04:15:52;;;;;;;;;;;14.20;49.70;;;;;;5094924;28;19940;-66
2022/03/20 04:18:20;;;;;;;;;;;14.20;49.70;;;;;;5094815;28;19983;-66
2022/03/20 04:20:47;;;;;;;;;;;14.20;49.70;;;;;;5094800;28;19943;-66
2022/03/20 04:25:59;;;;;;;;;;;14.20;49.60;;;;;;5094685;28;19974;-67
2022/03/20 04:28:25;;;;;;;;;;;14.20;49.60;;;;;;5094658;28;19930;-66
2022/03/20 04:30:53;;;;;;;;;;;14.20;49.60;;;;;;5094526;28;19931;-66
2022/03/20 04:33:19;;;;;;;;;;;14.20;50.20;;;;;;5094254;28;19924;-67
2022/03/20 04:35:46;;;;;;;;;;;14.20;49.60;;;;;;5094262;28;19930;-67
2022/03/20 04:38:13;;;;;;;;;;;14.20;49.60;;;;;;5095442;28;20335;-65
2022/03/20 04:40:39;;;;;;;;;;;14.20;49.60;;;;;;5094166;28;19924;-66
2022/03/20 04:43:07;;;;;;;;;;;14.20;49.60;;;;;;5094048;28;19924;-66
2022/03/20 04:45:34;;;;;;;;;;;14.40;49.70;;;;;;5093321;28;19924;-66
2022/03/20 04:58:57;;;;;;;;;;;14.20;49.50;;;;;;5093942;28;20389;-67
2022/03/20 05:01:24;;;;;;;;;;;14.20;49.50;;;;;;5093935;28;20019;-67
2022/03/20 05:03:50;;;;;;;;;;;14.20;49.60;;;;;;5093442;28;19924;-66
2022/03/20 05:06:17;;;;;;;;;;;14.20;49.60;;;;;;5093913;28;19928;-66
2022/03/20 05:08:43;;;;;;;;;;;14.20;49.70;;;;;;5093936;28;19964;-67
2022/03/20 05:13:54;;;;;;;;;;;14.20;49.70;;;;;;5113086;28;20397;-66
2022/03/20 05:16:22;;;;;;;;;;;14.20;49.60;;;;;;5113811;28;19932;-66
2022/03/20 05:18:48;;;;;;;;;;;14.20;49.60;;;;;;5112565;28;19924;-66
2022/03/20 05:21:15;;;;;;;;;;;14.50;49.80;;;;;;5113862;28;19930;-67
2022/03/20 05:23:42;;;;;;;;;;;14.20;49.60;;;;;;5113210;28;19930;-66
2022/03/20 05:26:08;;;;;;;;;;;14.20;49.50;;;;;;5113849;28;19934;-66
2022/03/20 05:28:35;;;;;;;;;;;14.20;49.40;;;;;;5111943;28;19930;-67
2022/03/20 05:31:02;;;;;;;;;;;14.20;49.40;;;;;;5113831;28;19930;-67
2022/03/20 05:33:31;;;;;;;;;;;14.20;49.40;;;;;;5113589;28;19923;-66
2022/03/20 05:35:58;;;;;;;;;;;14.20;49.40;;;;;;5113548;28;19924;-66
2022/03/20 05:38:25;;;;;;;;;;;14.20;49.40;;;;;;5113445;28;19924;-66
2022/03/20 05:41:43;;;;;;;;;;;14.20;49.40;;;;;;5113796;28;20034;-67
2022/03/20 05:43:38;;;;;;;;;;;14.20;49.30;;;;;;5111066;28;19931;-67
2022/03/20 05:46:05;;;;;;;;;;;14.20;49.30;;;;;;5113356;28;19930;-66
2022/03/20 05:48:35;;;;;;;;;;;14.20;49.30;;;;;;5113298;28;19930;-66
2022/03/20 05:51:02;;;;;;;;;;;14.20;49.40;;;;;;5113255;28;20408;-66
2022/03/20 05:53:29;;;;;;;;;;;14.20;49.30;;;;;;5112747;28;20377;-66
2022/03/20 05:58:41;;;;;;;;;;;14.20;49.20;;;;;;5113017;28;19923;-66
2022/03/20 06:01:08;;;;;;;;;;;14.20;49.20;;;;;;5111580;28;20312;-66
2022/03/20 06:03:36;;;;;;;;;;;14.20;49.20;;;;;;5112755;28;19931;-65
2022/03/20 06:06:03;;;;;;;;;;;14.20;49.20;;;;;;5112735;28;19924;-66
2022/03/20 06:08:29;;;;;;;;;;;14.20;49.10;;;;;;5113269;28;19924;-66
2022/03/20 06:10:56;;;;;;;;;;;14.20;49.20;;;;;;5113173;28;19924;-66
2022/03/20 06:13:23;;;;;;;;;;;14.20;49.10;;;;;;5112799;28;19924;-66
2022/03/20 06:15:49;;;;;;;;;;;14.20;49.10;;;;;;5111269;28;19956;-66
2022/03/20 06:18:16;;;;;;;;;;;14.20;49.20;;;;;;5112878;28;20011;-66
2022/03/20 06:20:45;;;;;;;;;;;14.20;49.20;;;;;;5112654;28;20392;-66
2022/03/20 06:23:12;;;;;;;;;;;14.20;49.00;;;;;;5112227;28;19930;-66
2022/03/20 06:25:38;;;;;;;;;;;14.20;49.10;;;;;;5112907;28;20010;-66
2022/03/20 06:28:05;;;;;;;;;;;14.20;49.10;;;;;;5112919;28;19930;-66
2022/03/20 06:30:33;;;;;;;;;;;14.20;49.10;;;;;;5112754;28;20303;-66
2022/03/20 06:33:01;;;;;;;;;;;14.20;49.00;;;;;;5111206;28;20287;-67
2022/03/20 06:35:28;;;;;;;;;;;14.20;49.10;;;;;;5112569;28;20387;-66
2022/03/20 06:37:56;;;;;;;;;;;14.20;49.10;;;;;;5113019;28;20007;-67
2022/03/20 06:40:23;;;;;;;;;;;14.20;48.90;;;;;;5112796;28;19924;-66
2022/03/20 06:42:49;;;;;;;;;;;14.20;48.90;;;;;;5112242;28;20387;-67
2022/03/20 06:45:18;;;;;;;;;;;14.20;48.90;;;;;;5112502;28;20014;-67
2022/03/20 06:47:44;;;;;;;;;;;14.30;48.90;;;;;;5112545;28;19924;-66
2022/03/20 06:50:11;;;;;;;;;;;14.30;48.90;;;;;;5093236;28;19924;-66
2022/03/20 06:52:39;;;;;;;;;;;14.30;48.80;;;;;;5092308;28;20011;-66
2022/03/20 06:55:08;;;;;;;;;;;14.40;48.70;;;;;;5092167;28;19978;-66
2022/03/20 06:57:35;;;;;;;;;;;14.50;48.50;;;;;;5091153;28;20373;-66
2022/03/20 07:00:03;;;;;;;;;;;14.50;48.40;;;;;;5092376;28;20373;-66
2022/03/20 07:02:29;;;;;;;;;;;14.60;48.50;;;;;;5091953;28;20015;-66
2022/03/20 07:04:56;;;;;;;;;;;14.50;48.40;;;;;;5093216;28;19931;-67
2022/03/20 07:07:23;;;;;;;;;;;14.50;48.40;;;;;;5094869;28;19923;-65
2022/03/20 07:09:49;;;;;;;;;;;14.50;48.40;;;;;;5104882;28;19988;-66
2022/03/20 07:12:17;;;;;;;;;;;14.50;48.30;;;;;;5109686;28;20277;-67
2022/03/20 07:14:44;;;;;;;;;;;14.50;48.20;;;;;;5104045;28;19954;-67
2022/03/20 07:17:12;;;;;;;;;;;14.40;48.20;;;;;;5105213;28;19947;-67
2022/03/20 07:19:39;;;;;;;;;;;14.40;48.40;;;;;;5105484;28;19934;-66
2022/03/20 07:22:05;;;;;;;;;;;14.40;48.50;;;;;;5102951;28;20054;-66
2022/03/20 07:24:33;;;;;;;;;;;14.40;48.40;;;;;;5104078;28;19934;-66
2022/03/20 07:29:46;;;;;;;;;;;14.40;48.40;;;;;;5103917;28;19999;-66
2022/03/20 07:32:12;;;;;;;;;;;14.40;48.40;;;;;;5095537;28;20292;-67
2022/03/20 07:34:39;;;;;;;;;;;14.40;48.50;;;;;;5095700;28;19946;-67
2022/03/20 07:37:06;;;;;;;;;;;14.40;48.50;;;;;;5096294;28;20376;-66
2022/03/20 07:39:33;;;;;;;;;;;14.40;48.50;;;;;;5095420;28;20018;-67
2022/03/20 07:42:00;;;;;;;;;;;14.40;48.50;;;;;;5095485;28;20042;-66
2022/03/20 07:44:26;;;;;;;;;;;14.40;48.30;;;;;;5095078;28;19924;-66
2022/03/20 07:46:54;;;;;;;;;;;14.40;48.20;;;;;;5095514;28;19924;-67
2022/03/20 07:49:21;;;;;;;;;;;14.50;48.30;;;;;;5095352;28;19930;-67
2022/03/20 07:51:47;;;;;;;;;;;14.50;48.30;;;;;;5095238;28;19931;-67
2022/03/20 07:54:14;;;;;;;;;;;14.50;48.40;;;;;;5095962;28;20389;-66
2022/03/20 07:56:41;;;;;;;;;;;14.50;48.20;;;;;;5095373;28;19924;-67
2022/03/20 07:59:09;;;;;;;;;;;14.50;48.20;;;;;;5095258;28;19924;-67
2022/03/20 08:01:36;;;;;;;;;;;14.50;48.20;;;;;;5094957;28;19975;-66
2022/03/20 08:04:04;;;;;;;;;;;14.50;48.40;;;;;;5093306;28;20396;-66
2022/03/20 08:06:31;;;;;;;;;;;14.50;48.30;;;;;;5095150;28;20019;-66
2022/03/20 08:08:59;;;;;;;;;;;14.60;48.30;;;;;;5095980;28;19935;-67
2022/03/20 08:11:26;;;;;;;;;;;14.60;48.30;;;;;;5094841;28;19924;-67
2022/03/20 08:13:52;;;;;;;;;;;14.60;48.30;;;;;;5094112;28;20299;-66
2022/03/20 08:16:21;;;;;;;;;;;14.60;48.20;;;;;;5094879;28;20011;-66
2022/03/20 08:18:48;;;;;;;;;;;14.60;48.10;;;;;;5094671;28;19970;-66
2022/03/20 08:21:16;;;;;;;;;;;14.60;48.10;;;;;;5093185;28;19924;-66
2022/03/20 08:23:43;;;;;;;;;;;14.60;48.10;;;;;;5094007;28;19934;-66
2022/03/20 08:26:09;;;;;;;;;;;14.60;48.10;;;;;;5095596;28;19967;-68
2022/03/20 08:28:37;;;;;;;;;;;14.60;48.10;;;;;;5094549;28;19977;-69
2022/03/20 08:31:05;;;;;;;;;;;14.60;48.00;;;;;;5093158;28;19931;-69
2022/03/20 08:33:31;;;;;;;;;;;14.60;48.40;;;;;;5110235;28;20387;-69
2022/03/20 08:35:58;;;;;;;;;;;14.60;47.90;;;;;;5114928;28;19943;-69
2022/03/20 08:38:26;;;;;;;;;;;14.60;48.10;;;;;;5114778;28;19923;-69
2022/03/20 08:40:52;;;;;;;;;;;14.50;48.00;;;;;;5115282;28;19930;-69
2022/03/20 08:43:19;;;;;;;;;;;14.50;48.00;;;;;;5112282;28;19930;-69
2022/03/20 08:45:46;;;;;;;;;;;14.50;48.10;;;;;;5114288;28;20006;-68
2022/03/20 08:48:12;;;;;;;;;;;14.50;48.20;;;;;;5114263;28;20299;-69
2022/03/20 08:50:39;;;;;;;;;;;14.50;48.40;;;;;;5112941;28;20536;-69
2022/03/20 08:53:06;;;;;;;;;;;14.60;48.30;;;;;;5112388;28;20307;-68
2022/03/20 08:55:34;;;;;;;;;;;14.60;48.40;;;;;;5107148;28;20010;-69
2022/03/20 08:58:01;;;;;;;;;;;14.60;48.30;;;;;;5112328;28;19923;-68
2022/03/20 09:00:29;;;;;;;;;;;14.60;48.30;;;;;;5102141;28;19923;-69
2022/03/20 09:02:55;;;;;;;;;;;14.60;48.30;;;;;;5099339;28;19986;-69
2022/03/20 09:05:22;;;;;;;;;;;14.60;48.30;;;;;;5102740;28;19934;-68
2022/03/20 09:07:49;;;;;;;;;;;14.70;48.30;;;;;;5101957;28;19923;-69
2022/03/20 09:10:16;;;;;;;;;;;14.70;48.30;;;;;;5092348;28;19946;-68
2022/03/20 09:12:44;;;;;;;;;;;14.70;48.30;;;;;;5092489;28;19979;-69
2022/03/20 09:15:12;;;;;;;;;;;14.70;48.20;;;;;;5092169;28;19924;-68
2022/03/20 09:20:23;;;;;;;;;;;14.80;48.20;;;;;;5099071;28;19920;-68
2022/03/20 09:22:49;;;;;;;;;;;14.80;48.30;;;;;;5110206;28;19946;-69
2022/03/20 09:25:16;;;;;;;;;;;14.80;48.30;;;;;;5113151;28;19923;-69
2022/03/20 09:27:44;;;;;;;;;;;14.80;48.20;;;;;;5103125;28;19928;-68
2022/03/20 09:30:11;;;;;;;;;;;14.80;48.20;;;;;;5111534;28;20022;-67
2022/03/20 09:32:37;;;;;;;;;;;14.90;48.20;;;;;;5106829;28;19924;-69
2022/03/20 09:35:04;;;;;;;;;;;14.90;48.20;;;;;;5104963;28;19924;-69
2022/03/20 09:37:31;;;;;;;;;;;14.90;48.20;;;;;;5109502;28;20394;-69
2022/03/20 09:39:57;;;;;;;;;;;14.90;48.10;;;;;;5099935;28;19925;-69
2022/03/20 09:42:24;;;;;;;;;;;14.90;48.10;;;;;;5111549;28;19979;-69
2022/03/20 09:44:53;;;;;;;;;;;15.00;48.10;;;;;;5098685;28;20112;-69
2022/03/20 09:47:19;;;;;;;;;;;15.00;48.10;;;;;;5093269;28;20012;-68
2022/03/20 09:49:46;;;;;;;;;;;15.00;48.10;;;;;;5093176;28;19924;-68
2022/03/20 09:52:13;;;;;;;;;;;15.00;48.00;;;;;;5092966;28;19924;-69
2022/03/20 09:54:39;;;;;;;;;;;15.00;48.10;;;;;;5092409;28;19924;-67
2022/03/20 09:57:07;;;;;;;;;;;15.00;48.00;;;;;;5105057;28;20030;-69
2022/03/20 09:59:33;;;;;;;;;;;15.10;48.00;;;;;;5113166;28;20396;-68
2022/03/20 10:02:04;;;;;;;;;;;15.10;48.00;;;;;;5113267;28;19930;-68
2022/03/20 10:04:34;;;;;;;;;;;15.10;48.00;;;;;;5112839;28;19924;-70
2022/03/20 10:07:01;;;;;;;;;;;15.20;48.00;;;;;;5099380;28;19924;-67
2022/03/20 10:09:27;;;;;;;;;;;15.20;48.00;;;;;;5091075;28;19950;-68
2022/03/20 10:11:54;;;;;;;;;;;15.20;47.90;;;;;;5094049;28;20324;-68
2022/03/20 10:14:21;;;;;;;;;;;15.20;47.80;;;;;;5112961;28;20010;-68
2022/03/20 10:16:49;;;;;;;;;;;15.30;47.80;;;;;;5105608;28;19946;-68
2022/03/20 10:19:32;;;;;;;;;;;15.30;47.90;;;;;;5105998;28;19923;-69
2022/03/20 10:22:00;;;;;;;;;;;15.30;47.70;;;;;;5097326;28;20375;-68
2022/03/20 10:24:27;;;;;;;;;;;15.40;47.70;;;;;;5100464;28;19924;-68
2022/03/20 10:27:03;;;;;;;;;;;15.40;47.70;;;;;;5099388;28;19967;-67
2022/03/20 10:29:30;;;;;;;;;;;15.50;47.60;;;;;;5101613;28;20022;-68
2022/03/20 10:32:00;;;;;;;;;;;15.70;47.60;;;;;;5101151;28;20296;-68
2022/03/20 10:34:27;;;;;;;;;;;15.60;47.50;;;;;;5099753;28;20402;-68
2022/03/20 10:36:55;;;;;;;;;;;15.60;47.40;;;;;;5100947;28;19993;-69
2022/03/20 10:39:22;;;;;;;;;;;15.60;47.30;;;;;;5099909;28;19930;-69
2022/03/20 10:41:49;;;;;;;;;;;15.70;47.30;;;;;;5103054;28;19947;-67
2022/03/20 10:44:16;;;;;;;;;;;15.70;47.30;;;;;;5102156;28;19924;-69
2022/03/20 10:46:43;;;;;;;;;;;15.80;47.30;;;;;;5105195;28;20307;-68
2022/03/20 10:49:11;;;;;;;;;;;15.80;47.20;;;;;;5106138;28;19985;-68
2022/03/20 10:51:38;;;;;;;;;;;15.80;47.20;;;;;;5102000;28;19924;-68
2022/03/20 10:54:07;;;;;;;;;;;15.90;47.20;;;;;;5105133;28;20395;-68
2022/03/20 10:56:33;;;;;;;;;;;15.90;47.10;;;;;;5104070;28;19977;-69
2022/03/20 10:59:03;;;;;;;;;;;15.90;47.10;;;;;;5106062;28;19924;-68
2022/03/20 11:01:36;;;;;;;;;;;16.00;47.00;;;;;;5104828;28;19938;-68
2022/03/20 11:04:02;;;;;;;;;;;16.00;47.00;;;;;;5104435;28;19981;-67
2022/03/20 11:06:29;;;;;;;;;;;16.00;47.30;;;;;;5106943;28;21630;-67
2022/03/20 11:08:56;;;;;;;;;;;16.00;46.80;;;;;;5101666;28;19924;-68
2022/03/20 11:11:24;;;;;;;;;;;16.10;46.80;;;;;;5094966;28;19924;-68
2022/03/20 11:13:51;;;;;;;;;;;16.10;46.80;;;;;;5095770;28;19932;-69
2022/03/20 11:16:18;;;;;;;;;;;17.40;47.60;;;;;;5095578;28;20397;-68
2022/03/20 11:18:45;;;;;;;;;;;16.10;46.80;;;;;;5095943;28;20396;-68
2022/03/20 11:21:11;;;;;;;;;;;16.10;46.80;;;;;;5095951;28;20002;-67
2022/03/20 11:23:38;;;;;;;;;;;16.20;46.80;;;;;;5095540;28;19930;-68
2022/03/20 11:26:04;;;;;;;;;;;16.20;47.40;;;;;;5108579;28;19930;-68
2022/03/20 11:28:35;;;;;;;;;;;16.20;46.70;;;;;;5116044;28;19924;-68
2022/03/20 11:31:02;;;;;;;;;;;16.20;46.70;;;;;;5116120;28;19930;-67
2022/03/20 11:33:28;;;;;;;;;;;16.30;46.70;;;;;;5115748;28;19923;-68
2022/03/20 11:35:55;;;;;;;;;;;16.30;46.70;;;;;;5115803;28;20395;-68
2022/03/20 11:38:22;;;;;;;;;;;16.30;46.70;;;;;;5115637;28;19924;-68
2022/03/20 11:41:05;;;;;;;;;;;16.30;46.70;;;;;;5116002;28;19946;-67
2022/03/20 11:43:32;;;;;;;;;;;16.30;46.60;;;;;;5095010;28;20006;-67
2022/03/20 11:46:14;;;;;;;;;;;16.40;46.60;;;;;;5095658;28;19924;-67
2022/03/20 11:48:40;;;;;;;;;;;16.40;46.60;;;;;;5103459;28;19955;-68
2022/03/20 11:51:07;;;;;;;;;;;16.40;46.60;;;;;;5106180;28;19930;-68
2022/03/20 11:53:37;;;;;;;;;;;16.40;46.60;;;;;;5102855;28;19931;-68
2022/03/20 11:56:03;;;;;;;;;;;16.40;46.60;;;;;;5103821;28;19924;-68
2022/03/20 11:58:37;;;;;;;;;;;16.50;46.70;;;;;;5104948;28;20464;-68
2022/03/20 12:01:05;;;;;;;;;;;16.50;46.60;;;;;;5102838;28;19931;-68
2022/03/20 12:03:53;;;;;;;;;;;16.50;46.60;;;;;;5102510;28;19923;-68
2022/03/20 12:06:47;;;;;;;;;;;16.50;46.50;;;;;;5102638;28;19928;-68
2022/03/20 12:09:23;;;;;;;;;;;16.50;46.50;;;;;;5058764;28;19930;-68
2022/03/20 12:11:54;;;;;;;;;;;16.50;46.60;;;;;;5103532;28;19928;-68
2022/03/20 12:14:25;;;;;;;;;;;16.50;46.50;;;;;;5102342;28;19924;-67
2022/03/20 12:16:52;;;;;;;;;;;16.50;46.50;;;;;;5104004;28;20368;-68
2022/03/20 12:19:19;;;;;;;;;;;16.50;46.50;;;;;;5105843;28;19923;-68
2022/03/20 12:21:55;;;;;;;;;;;16.50;46.50;;;;;;5102884;28;19924;-68
2022/03/20 12:24:45;;;;;;;;;;;16.50;46.50;;;;;;5102943;28;20305;-68
2022/03/20 12:27:30;;;;;;;;;;;16.50;46.50;;;;;;5112675;28;19928;-68
2022/03/20 12:29:58;;;;;;;;;;;16.50;46.50;;;;;;5101811;28;19924;-68
2022/03/20 12:32:25;;;;;;;;;;;16.50;46.50;;;;;;5114633;28;20396;-68
2022/03/20 12:35:06;;;;;;;;;;;16.40;46.40;;;;;;5113891;28;20303;-67
2022/03/20 12:37:38;;;;;;;;;;;16.40;47.10;;;;;;5114476;28;19930;-68
2022/03/20 12:40:08;;;;;;;;;;;16.40;46.50;;;;;;5114195;28;19945;-68
2022/03/20 12:42:35;;;;;;;;;;;16.40;46.60;;;;;;5114307;28;19924;-68
2022/03/20 12:45:04;;;;;;;;;;;16.40;46.60;;;;;;5113432;28;19930;-67
2022/03/20 12:47:30;;;;;;;;;;;16.30;46.60;;;;;;5114667;28;19923;-68
2022/03/20 12:49:59;;;;;;;;;;;16.30;46.70;;;;;;5114677;28;19924;-68
2022/03/20 12:52:25;;;;;;;;;;;16.20;46.60;;;;;;5114160;28;19924;-68
2022/03/20 12:54:52;;;;;;;;;;;16.20;46.70;;;;;;5098742;27;20386;-67
2022/03/20 12:57:19;;;;;;;;;;;16.20;46.70;;;;;;5092442;28;19930;-66
2022/03/20 12:59:46;;;;;;;;;;;16.20;46.70;;;;;;5094084;28;19924;-68
2022/03/20 13:02:13;;;;;;;;;;;16.20;46.70;;;;;;5093667;28;20014;-67
2022/03/20 13:04:45;;;;;;;;;;;16.10;47.30;;;;;;5093623;28;20281;-67
2022/03/20 13:07:24;;;;;;;;;;;16.10;47.80;;;;;;5093966;28;19924;-68
2022/03/20 13:09:57;;;;;;;;;;;16.20;48.10;;;;;;5111747;28;19935;-66
2022/03/20 13:12:23;;;;;;;;;;;16.20;48.40;;;;;;5099103;28;19934;-68
2022/03/20 13:14:55;;;;;;;;;;;16.30;48.30;;;;;;5091869;28;19924;-68
2022/03/20 13:17:26;;;;;;;;;;;16.30;48.30;;;;;;5093564;28;19979;-69
2022/03/20 13:19:53;;;;;;;;;;;16.30;48.00;;;;;;5093822;28;19924;-67
2022/03/20 13:22:19;;;;;;;;;;;16.40;47.90;;;;;;5093109;28;19973;-69
2022/03/20 13:24:46;;;;;;;;;;;16.40;47.90;;;;;;5104257;28;19923;-69
2022/03/20 13:27:13;;;;;;;;;;;16.40;47.80;;;;;;5112551;28;19924;-69
2022/03/20 13:29:40;;;;;;;;;;;16.40;47.80;;;;;;5113478;28;19924;-68
2022/03/20 13:32:08;;;;;;;;;;;16.40;47.80;;;;;;5113952;28;19924;-68
2022/03/20 13:34:46;;;;;;;;;;;16.30;47.70;;;;;;5113408;28;19931;-69
2022/03/20 13:37:13;;;;;;;;;;;16.30;47.70;;;;;;5113631;28;19930;-69
2022/03/20 13:39:44;;;;;;;;;;;16.30;47.70;;;;;;5111895;27;19925;-68
2022/03/20 13:42:18;;;;;;;;;;;16.30;47.70;;;;;;5112073;28;19934;-68
2022/03/20 13:44:47;;;;;;;;;;;16.30;47.60;;;;;;5112447;28;20441;-67
2022/03/20 13:47:13;;;;;;;;;;;16.20;47.50;;;;;;5113427;28;19924;-67
2022/03/20 13:49:41;;;;;;;;;;;16.30;47.60;;;;;;5113622;28;19924;-68
2022/03/20 13:52:08;;;;;;;;;;;16.20;47.40;;;;;;5113304;28;20287;-68
2022/03/20 13:54:39;;;;;;;;;;;16.20;47.40;;;;;;5113279;28;20007;-68
2022/03/20 13:57:09;;;;;;;;;;;16.20;47.60;;;;;;5099499;28;19932;-69
2022/03/20 13:59:49;;;;;;;;;;;16.10;47.60;;;;;;5093103;28;19973;-68
2022/03/20 14:02:15;;;;;;;;;;;16.10;47.70;;;;;;5092512;28;19924;-68
2022/03/20 14:04:44;;;;;;;;;;;16.10;47.60;;;;;;5091747;28;19928;-67
2022/03/20 14:07:18;;;;;;;;;;;16.10;47.60;;;;;;5092638;28;19931;-68
2022/03/20 14:09:45;;;;;;;;;;;16.10;47.80;;;;;;5092913;28;19927;-69
2022/03/20 14:12:21;;;;;;;;;;;16.10;47.80;;;;;;5098060;28;20288;-68
2022/03/20 14:14:51;;;;;;;;;;;16.00;47.60;;;;;;5113305;28;20011;-67
2022/03/20 14:17:18;;;;;;;;;;;16.00;47.60;;;;;;5112772;28;19969;-69
2022/03/20 14:19:46;;;;;;;;;;;16.00;47.60;;;;;;5111995;28;20372;-68
2022/03/20 14:22:13;;;;;;;;;;;16.00;47.60;;;;;;5112749;28;19930;-69
2022/03/20 14:24:43;;;;;;;;;;;16.00;47.60;;;;;;5112494;28;19923;-69
2022/03/20 14:27:10;;;;;;;;;;;16.00;47.60;;;;;;5112882;28;20391;-69
2022/03/20 14:40:51;;;;;;;;;;;15.90;47.60;;;;;;5111360;28;19928;-69
2022/03/20 14:43:17;;;;;;;;;;;15.90;47.70;;;;;;5112778;28;19924;-68
2022/03/20 14:45:44;;;;;;;;;;;15.90;47.70;;;;;;5098318;28;19931;-69
2022/03/20 14:48:10;;;;;;;;;;;15.90;47.80;;;;;;5091344;28;19930;-69
2022/03/20 14:50:38;;;;;;;;;;;15.80;47.70;;;;;;5092485;28;20300;-68
2022/03/20 14:53:06;;;;;;;;;;;15.80;47.70;;;;;;5091765;28;19924;-67
2022/03/20 14:55:32;;;;;;;;;;;15.90;47.80;;;;;;5091898;28;19934;-68
2022/03/20 14:58:00;;;;;;;;;;;15.80;47.60;;;;;;5090739;28;19931;-69
2022/03/20 15:00:27;;;;;;;;;;;15.80;47.80;;;;;;5091488;28;19924;-66
2022/03/20 15:02:53;;;;;;;;;;;15.70;47.60;;;;;;5110768;28;20349;-67
2022/03/20 15:05:20;;;;;;;;;;;15.70;47.60;;;;;;5112224;28;20006;-67
2022/03/20 15:13:14;;;;;;;;;;;15.60;47.50;;;;;;5104583;28;20384;-68